sensor_id;sensor_type;location;lat;lon;timestamp;P1;durP1;ratioP1;P2;durP2;ratioP2
23768;SDS011;12064;50.890;5.424;2022-09-03T00:08:02;3.40;;;1.20;;
23768;SDS011;12064;50.890;5.424;2022-09-03T00:17:08;1.30;;;1.20;;
23768;SDS011;12064;50.890;5.424;2022-09-03T00:35:01;1.35;;;1.23;;
23768;SDS011;12064;50.890;5.424;2022-09-03T01:20:22;2.80;;;1.20;;
23768;SDS011;12064;50.890;5.424;2022-09-03T01:29:26;1.35;;;1.10;;
23768;SDS011;12064;50.890;5.424;2022-09-03T02:05:46;2.55;;;1.25;;
23768;SDS011;12064;50.890;5.424;2022-09-03T02:14:37;1.45;;;1.30;;
23768;SDS011;12064;50.890;5.424;2022-09-03T02:23:28;1.53;;;1.27;;
23768;SDS011;12064;50.890;5.424;2022-09-03T02:32:21;1.45;;;1.10;;
23768;SDS011;12064;50.890;5.424;2022-09-03T02:41:12;3.17;;;1.20;;
23768;SDS011;12064;50.890;5.424;2022-09-03T02:50:04;2.05;;;1.20;;
23768;SDS011;12064;50.890;5.424;2022-09-03T02:58:58;1.38;;;1.20;;
23768;SDS011;12064;50.890;5.424;2022-09-03T03:07:49;1.33;;;1.20;;
23768;SDS011;12064;50.890;5.424;2022-09-03T03:16:44;2.47;;;1.27;;
23768;SDS011;12064;50.890;5.424;2022-09-03T03:34:52;1.52;;;1.30;;
23768;SDS011;12064;50.890;5.424;2022-09-03T03:43:43;2.95;;;1.30;;
23768;SDS011;12064;50.890;5.424;2022-09-03T03:52:37;2.13;;;1.20;;
23768;SDS011;12064;50.890;5.424;2022-09-03T04:20:36;3.50;;;1.38;;
23768;SDS011;12064;50.890;5.424;2022-09-03T04:29:27;1.88;;;1.42;;
23768;SDS011;12064;50.890;5.424;2022-09-03T04:38:20;1.55;;;1.10;;
23768;SDS011;12064;50.890;5.424;2022-09-03T04:47:13;2.33;;;1.35;;
23768;SDS011;12064;50.890;5.424;2022-09-03T04:56:11;1.52;;;1.30;;
23768;SDS011;12064;50.890;5.424;2022-09-03T05:05:12;3.63;;;1.48;;
23768;SDS011;12064;50.890;5.424;2022-09-03T05:14:03;4.47;;;1.80;;
23768;SDS011;12064;50.890;5.424;2022-09-03T05:23:01;2.38;;;1.85;;
23768;SDS011;12064;50.890;5.424;2022-09-03T05:31:55;4.25;;;1.73;;
23768;SDS011;12064;50.890;5.424;2022-09-03T05:40:47;4.20;;;1.70;;
23768;SDS011;12064;50.890;5.424;2022-09-03T05:49:41;2.83;;;1.80;;
23768;SDS011;12064;50.890;5.424;2022-09-03T05:58:32;3.37;;;1.60;;
23768;SDS011;12064;50.890;5.424;2022-09-03T06:07:23;2.30;;;1.70;;
23768;SDS011;12064;50.890;5.424;2022-09-03T06:16:14;5.07;;;1.50;;
23768;SDS011;12064;50.890;5.424;2022-09-03T06:25:08;2.28;;;1.30;;
23768;SDS011;12064;50.890;5.424;2022-09-03T06:34:00;2.70;;;1.40;;
23768;SDS011;12064;50.890;5.424;2022-09-03T06:42:55;6.35;;;1.48;;
23768;SDS011;12064;50.890;5.424;2022-09-03T06:51:49;4.38;;;1.40;;
23768;SDS011;12064;50.890;5.424;2022-09-03T07:00:42;3.00;;;1.37;;
23768;SDS011;12064;50.890;5.424;2022-09-03T07:09:33;4.80;;;1.58;;
23768;SDS011;12064;50.890;5.424;2022-09-03T07:18:28;7.75;;;1.50;;
23768;SDS011;12064;50.890;5.424;2022-09-03T07:27:23;3.17;;;1.40;;
23768;SDS011;12064;50.890;5.424;2022-09-03T07:36:17;4.00;;;1.27;;
23768;SDS011;12064;50.890;5.424;2022-09-03T07:45:08;2.50;;;1.45;;
23768;SDS011;12064;50.890;5.424;2022-09-03T07:54:03;2.90;;;1.40;;
23768;SDS011;12064;50.890;5.424;2022-09-03T08:02:56;2.95;;;1.40;;
23768;SDS011;12064;50.890;5.424;2022-09-03T08:11:50;2.30;;;1.38;;
23768;SDS011;12064;50.890;5.424;2022-09-03T08:20:44;2.08;;;1.30;;
23768;SDS011;12064;50.890;5.424;2022-09-03T08:29:35;3.70;;;1.33;;
23768;SDS011;12064;50.890;5.424;2022-09-03T08:38:30;3.40;;;1.33;;
23768;SDS011;12064;50.890;5.424;2022-09-03T08:47:28;3.42;;;1.48;;
23768;SDS011;12064;50.890;5.424;2022-09-03T08:56:31;4.00;;;1.60;;
23768;SDS011;12064;50.890;5.424;2022-09-03T09:05:59;3.10;;;1.63;;
23768;SDS011;12064;50.890;5.424;2022-09-03T09:15:16;3.97;;;1.50;;
23768;SDS011;12064;50.890;5.424;2022-09-03T09:33:28;3.85;;;1.70;;
23768;SDS011;12064;50.890;5.424;2022-09-03T09:42:21;2.63;;;1.50;;
23768;SDS011;12064;50.890;5.424;2022-09-03T09:51:17;2.08;;;1.38;;
23768;SDS011;12064;50.890;5.424;2022-09-03T10:00:12;1.55;;;1.42;;
23768;SDS011;12064;50.890;5.424;2022-09-03T10:09:09;2.67;;;1.50;;
23768;SDS011;12064;50.890;5.424;2022-09-03T10:27:34;1.85;;;1.38;;
23768;SDS011;12064;50.890;5.424;2022-09-03T10:36:32;1.80;;;1.55;;
23768;SDS011;12064;50.890;5.424;2022-09-03T10:45:44;2.60;;;1.83;;
23768;SDS011;12064;50.890;5.424;2022-09-03T11:22:10;1.98;;;1.77;;
23768;SDS011;12064;50.890;5.424;2022-09-03T11:40:38;1.70;;;1.60;;
23768;SDS011;12064;50.890;5.424;2022-09-03T11:49:32;1.80;;;1.63;;
23768;SDS011;12064;50.890;5.424;2022-09-03T11:58:38;2.10;;;1.67;;
23768;SDS011;12064;50.890;5.424;2022-09-03T12:26:13;2.88;;;1.65;;
23768;SDS011;12064;50.890;5.424;2022-09-03T12:35:20;1.63;;;1.52;;
23768;SDS011;12064;50.890;5.424;2022-09-03T12:44:23;1.70;;;1.60;;
23768;SDS011;12064;50.890;5.424;2022-09-03T12:53:21;1.90;;;1.80;;
23768;SDS011;12064;50.890;5.424;2022-09-03T13:11:35;1.83;;;1.73;;
23768;SDS011;12064;50.890;5.424;2022-09-03T13:30:09;1.95;;;1.70;;
23768;SDS011;12064;50.890;5.424;2022-09-03T13:39:04;2.08;;;1.80;;
23768;SDS011;12064;50.890;5.424;2022-09-03T13:57:56;1.63;;;1.53;;
23768;SDS011;12064;50.890;5.424;2022-09-03T14:07:10;2.55;;;1.65;;
23768;SDS011;12064;50.890;5.424;2022-09-03T14:16:23;1.92;;;1.70;;
23768;SDS011;12064;50.890;5.424;2022-09-03T14:34:39;1.95;;;1.85;;
23768;SDS011;12064;50.890;5.424;2022-09-03T14:43:46;3.05;;;1.70;;
23768;SDS011;12064;50.890;5.424;2022-09-03T14:52:59;1.77;;;1.67;;
23768;SDS011;12064;50.890;5.424;2022-09-03T15:11:14;1.80;;;1.70;;
23768;SDS011;12064;50.890;5.424;2022-09-03T15:20:31;1.80;;;1.70;;
23768;SDS011;12064;50.890;5.424;2022-09-03T15:38:54;2.45;;;1.65;;
23768;SDS011;12064;50.890;5.424;2022-09-03T15:47:53;3.30;;;1.83;;
23768;SDS011;12064;50.890;5.424;2022-09-03T15:57:12;6.05;;;2.90;;
23768;SDS011;12064;50.890;5.424;2022-09-03T16:15:28;9.88;;;4.82;;
23768;SDS011;12064;50.890;5.424;2022-09-03T16:43:07;10.63;;;4.93;;
23768;SDS011;12064;50.890;5.424;2022-09-03T17:10:36;10.18;;;4.88;;
23768;SDS011;12064;50.890;5.424;2022-09-03T17:29:21;7.47;;;4.50;;
23768;SDS011;12064;50.890;5.424;2022-09-03T18:24:56;14.32;;;6.85;;
23768;SDS011;12064;50.890;5.424;2022-09-03T18:34:25;9.32;;;6.57;;
23768;SDS011;12064;50.890;5.424;2022-09-03T18:43:53;8.93;;;6.47;;
23768;SDS011;12064;50.890;5.424;2022-09-03T18:53:27;9.48;;;6.20;;
23768;SDS011;12064;50.890;5.424;2022-09-03T19:13:22;8.02;;;5.93;;
23768;SDS011;12064;50.890;5.424;2022-09-03T19:22:38;8.05;;;5.90;;
23768;SDS011;12064;50.890;5.424;2022-09-03T19:41:33;7.75;;;6.22;;
23768;SDS011;12064;50.890;5.424;2022-09-03T19:50:56;9.20;;;6.00;;
23768;SDS011;12064;50.890;5.424;2022-09-03T20:00:32;7.18;;;5.32;;
23768;SDS011;12064;50.890;5.424;2022-09-03T20:09:42;6.65;;;5.78;;
23768;SDS011;12064;50.890;5.424;2022-09-03T20:55:40;5.35;;;4.70;;
23768;SDS011;12064;50.890;5.424;2022-09-03T21:04:42;5.60;;;4.68;;
23768;SDS011;12064;50.890;5.424;2022-09-03T21:32:13;5.67;;;4.50;;
23768;SDS011;12064;50.890;5.424;2022-09-03T21:50:25;4.70;;;3.97;;
23768;SDS011;12064;50.890;5.424;2022-09-03T22:27:19;2.88;;;2.20;;
23768;SDS011;12064;50.890;5.424;2022-09-03T22:36:15;2.53;;;2.20;;
23768;SDS011;12064;50.890;5.424;2022-09-03T22:54:28;2.72;;;2.00;;
23768;SDS011;12064;50.890;5.424;2022-09-03T23:04:09;3.08;;;2.22;;
23768;SDS011;12064;50.890;5.424;2022-09-03T23:13:14;2.42;;;2.15;;
23768;SDS011;12064;50.890;5.424;2022-09-03T23:22:30;2.00;;;1.90;;
23768;SDS011;12064;50.890;5.424;2022-09-03T23:31:23;2.13;;;1.92;;
23768;SDS011;12064;50.890;5.424;2022-09-03T23:49:10;2.47;;;1.87;;
23768;SDS011;12064;50.890;5.424;2022-09-03T23:58:10;2.10;;;1.90;;
